createdAt,value
2019-05-29T00:00:18.144Z,43.03
2019-05-29T00:02:47.031Z,44.73
2019-05-29T00:05:15.838Z,38.43
2019-05-29T00:07:52.623Z,41.33
2019-05-29T00:10:22.157Z,38.90
2019-05-29T00:12:52.022Z,31.77
2019-05-29T00:15:20.708Z,34.17
2019-05-29T00:17:49.387Z,33.60
2019-05-29T00:20:18.656Z,33.43
2019-05-29T00:22:47.448Z,34.97
2019-05-29T00:25:16.676Z,36.23
2019-05-29T00:27:45.762Z,38.17
2019-05-29T00:30:15.074Z,37.27
2019-05-29T00:32:43.566Z,33.03
2019-05-29T00:35:14.072Z,40.90
2019-05-29T00:37:43.064Z,36.63
2019-05-29T00:40:12.865Z,36.57
2019-05-29T00:42:41.966Z,36.43
2019-05-29T00:45:11.456Z,33.80
2019-05-29T00:47:40.966Z,36.87
2019-05-29T00:50:10.035Z,34.20
2019-05-29T00:52:38.807Z,50.47
2019-05-29T00:55:08.811Z,47.37
2019-05-29T00:57:38.589Z,42.77
2019-05-29T01:00:11.737Z,55.73
2019-05-29T01:02:40.474Z,58.30
2019-05-29T01:05:10.209Z,65.30
2019-05-29T01:07:38.725Z,65.53
2019-05-29T01:10:08.295Z,63.17
2019-05-29T01:12:36.913Z,60.87
2019-05-29T01:15:07.159Z,59.27
2019-05-29T01:17:37.088Z,45.90
2019-05-29T01:20:08.584Z,46.90
2019-05-29T01:22:37.793Z,45.20
2019-05-29T01:25:07.212Z,39.23
2019-05-29T01:27:35.673Z,37.40
2019-05-29T01:30:06.693Z,32.70
2019-05-29T01:32:35.827Z,25.70
2019-05-29T01:35:06.394Z,26.70
2019-05-29T01:37:35.754Z,26.67
2019-05-29T01:40:19.149Z,26.67
2019-05-29T01:42:36.066Z,23.03
2019-05-29T01:45:08.211Z,27.40
2019-05-29T01:47:36.536Z,26.07
2019-05-29T01:50:07.980Z,22.73
2019-05-29T01:52:36.503Z,19.77
2019-05-29T01:55:08.937Z,20.63
2019-05-29T01:57:37.483Z,17.13
2019-05-29T02:00:08.548Z,20.13
2019-05-29T02:02:37.151Z,20.30
2019-05-29T02:05:06.767Z,13.20
2019-05-29T02:07:35.391Z,9.67
2019-05-29T02:10:08.933Z,12.07
2019-05-29T02:12:37.411Z,15.73
2019-05-29T02:15:23.117Z,11.17
2019-05-29T02:17:39.859Z,11.93
2019-05-29T02:20:09.461Z,10.63
2019-05-29T02:22:38.028Z,8.57
2019-05-29T02:25:10.510Z,9.03
2019-05-29T02:27:38.976Z,11.53
2019-05-29T02:30:11.208Z,9.03
2019-05-29T02:32:39.686Z,9.93
2019-05-29T02:35:08.568Z,15.47
2019-05-29T02:37:37.133Z,8.87
2019-05-29T02:40:09.224Z,10.20
2019-05-29T02:42:38.181Z,10.30
2019-05-29T02:45:08.218Z,9.03
2019-05-29T02:47:36.748Z,11.60
2019-05-29T02:50:09.227Z,8.00
2019-05-29T02:52:37.814Z,9.37
2019-05-29T02:55:08.196Z,10.53
2019-05-29T02:57:39.490Z,8.27
2019-05-29T03:00:08.540Z,14.33
2019-05-29T03:02:37.083Z,12.77
2019-05-29T03:05:08.626Z,7.47
2019-05-29T03:07:37.144Z,7.20
2019-05-29T03:10:08.555Z,8.40
2019-05-29T03:12:37.649Z,8.10
2019-05-29T03:15:07.280Z,8.77
2019-05-29T03:17:35.742Z,12.50
2019-05-29T03:20:08.685Z,8.13
2019-05-29T03:22:37.211Z,6.80
2019-05-29T03:25:07.204Z,12.80
2019-05-29T03:27:35.727Z,5.87
2019-05-29T03:30:06.293Z,7.40
2019-05-29T03:32:46.746Z,6.53
2019-05-29T03:35:09.447Z,5.67
2019-05-29T03:37:38.832Z,5.80
2019-05-29T03:40:08.346Z,4.33
2019-05-29T03:42:36.807Z,8.17
2019-05-29T03:45:09.007Z,7.97
2019-05-29T03:47:37.552Z,7.73
2019-05-29T03:50:07.650Z,6.13
2019-05-29T03:52:36.269Z,5.87
2019-05-29T03:55:09.292Z,6.23
2019-05-29T03:57:38.365Z,6.90
2019-05-29T04:00:07.717Z,4.70
2019-05-29T04:02:38.207Z,4.47
2019-05-29T04:05:07.573Z,5.20
2019-05-29T04:07:37.760Z,3.30
2019-05-29T04:10:10.180Z,2.50
2019-05-29T04:12:39.762Z,4.40
2019-05-29T04:15:08.815Z,2.77
2019-05-29T04:17:39.198Z,1.23
2019-05-29T04:20:08.945Z,3.27
2019-05-29T04:22:45.792Z,2.00
2019-05-29T04:25:14.673Z,2.50
2019-05-29T04:27:43.749Z,1.77
2019-05-29T04:30:13.659Z,2.60
2019-05-29T04:32:42.213Z,3.70
2019-05-29T04:35:10.880Z,2.37
2019-05-29T04:37:39.994Z,1.77
2019-05-29T04:40:11.278Z,2.70
2019-05-29T04:42:40.269Z,3.50
2019-05-29T04:45:09.466Z,2.30
2019-05-29T04:47:39.586Z,6.37
2019-05-29T04:50:08.563Z,4.70
2019-05-29T04:52:37.894Z,2.80
2019-05-29T04:55:07.412Z,5.83
2019-05-29T04:57:37.095Z,4.50
2019-05-29T05:00:07.674Z,4.50
2019-05-29T05:02:37.154Z,3.93
2019-05-29T05:05:09.601Z,3.17
2019-05-29T05:07:39.475Z,6.57
2019-05-29T05:10:09.871Z,7.87
2019-05-29T05:12:40.085Z,6.07
2019-05-29T05:15:09.732Z,5.07
2019-05-29T05:17:38.270Z,6.63
2019-05-29T05:20:07.494Z,5.10
2019-05-29T05:22:36.446Z,6.23
2019-05-29T05:25:07.947Z,5.03
2019-05-29T05:27:36.581Z,6.70
2019-05-29T05:30:09.151Z,8.57
2019-05-29T05:32:38.739Z,7.47
2019-05-29T05:35:08.090Z,8.17
2019-05-29T05:37:37.015Z,6.93
2019-05-29T05:40:07.305Z,9.30
2019-05-29T05:42:37.145Z,7.50
2019-05-29T05:45:07.797Z,8.83
2019-05-29T05:47:52.948Z,10.97
2019-05-29T05:50:07.295Z,8.77
2019-05-29T05:52:35.798Z,4.93
2019-05-29T05:55:06.200Z,10.63
2019-05-29T05:57:35.570Z,22.73
2019-05-29T06:00:07.046Z,11.20
2019-05-29T06:02:35.941Z,18.10
2019-05-29T06:05:08.118Z,6.83
2019-05-29T06:07:36.683Z,9.90
2019-05-29T06:10:08.615Z,12.23
2019-05-29T06:12:38.502Z,9.97
2019-05-29T06:15:08.456Z,9.77
2019-05-29T06:17:36.943Z,7.97
2019-05-29T06:20:09.113Z,10.30
2019-05-29T06:22:38.971Z,6.90
2019-05-29T06:25:09.426Z,8.83
2019-05-29T06:27:39.064Z,6.73
2019-05-29T06:30:09.653Z,10.47
2019-05-29T06:32:39.327Z,12.43
2019-05-29T06:35:09.208Z,14.97
2019-05-29T06:37:37.802Z,14.17
2019-05-29T06:40:07.575Z,10.40
2019-05-29T06:42:37.818Z,10.27
2019-05-29T06:45:08.035Z,14.63
2019-05-29T06:47:38.496Z,9.87
2019-05-29T06:50:07.141Z,8.33
2019-05-29T06:52:35.642Z,8.93
2019-05-29T06:55:05.468Z,12.53
2019-05-29T06:57:34.000Z,11.27
2019-05-29T07:00:03.313Z,12.60
2019-05-29T07:02:32.028Z,7.70
2019-05-29T07:05:00.858Z,13.77
2019-05-29T07:07:29.373Z,15.30
2019-05-29T07:09:57.835Z,21.43
2019-05-29T07:12:26.367Z,10.40
2019-05-29T07:14:54.889Z,8.90
2019-05-29T07:17:23.350Z,13.90
2019-05-29T07:20:00.428Z,22.47
2019-05-29T07:22:23.692Z,11.00
2019-05-29T07:24:52.234Z,9.03
2019-05-29T07:27:20.750Z,6.40
2019-05-29T07:29:49.289Z,5.87
2019-05-29T07:32:17.802Z,6.50
2019-05-29T07:34:59.460Z,3.43
2019-05-29T07:37:16.475Z,5.90
2019-05-29T07:39:45.614Z,7.60
2019-05-29T07:42:14.173Z,8.23
2019-05-29T07:44:43.978Z,5.23
2019-05-29T07:47:12.679Z,4.43
2019-05-29T07:49:44.450Z,3.27
2019-05-29T07:52:12.238Z,5.67
2019-05-29T07:54:41.779Z,2.30
2019-05-29T07:57:10.649Z,3.63
2019-05-29T07:59:39.147Z,2.63
2019-05-29T08:02:07.692Z,2.63
2019-05-29T08:04:36.223Z,2.27
2019-05-29T08:07:05.776Z,5.23
2019-05-29T08:09:34.352Z,3.67
2019-05-29T08:12:02.879Z,5.83
2019-05-29T08:14:31.481Z,4.00
2019-05-29T08:17:00.179Z,4.43
2019-05-29T08:19:28.724Z,5.20
2019-05-29T08:21:57.577Z,8.63
2019-05-29T08:24:26.154Z,3.87
2019-05-29T08:26:54.731Z,5.33
2019-05-29T08:29:23.320Z,3.00
2019-05-29T08:31:51.796Z,7.03
2019-05-29T08:34:20.348Z,9.20
2019-05-29T08:37:05.939Z,6.40
2019-05-29T08:39:33.257Z,5.97
2019-05-29T08:42:19.280Z,6.77
2019-05-29T08:44:19.555Z,5.67
2019-05-29T08:47:06.392Z,5.67
2019-05-29T08:49:18.257Z,2.77
2019-05-29T08:51:47.989Z,4.73
2019-05-29T08:54:23.986Z,3.53
2019-05-29T08:56:46.803Z,4.77
2019-05-29T08:59:15.334Z,7.40
2019-05-29T09:01:45.095Z,5.07
2019-05-29T09:04:13.992Z,2.77
2019-05-29T09:06:42.986Z,3.00
2019-05-29T09:09:11.979Z,6.67
2019-05-29T09:11:40.530Z,5.00
2019-05-29T09:14:09.110Z,4.43
2019-05-29T09:16:37.596Z,7.53
2019-05-29T09:19:06.195Z,3.57
2019-05-29T09:21:37.197Z,7.97
2019-05-29T09:24:05.818Z,3.17
2019-05-29T09:26:34.299Z,4.00
2019-05-29T09:29:02.811Z,6.23
2019-05-29T09:31:31.351Z,4.57
2019-05-29T09:34:00.111Z,7.03
2019-05-29T09:36:28.715Z,3.43
2019-05-29T09:38:57.277Z,34.60
2019-05-29T09:41:25.835Z,13.07
2019-05-29T09:43:59.407Z,33.53
2019-05-29T09:46:25.877Z,18.77
2019-05-29T09:48:54.699Z,26.23
2019-05-29T09:51:23.527Z,26.83
2019-05-29T09:53:52.540Z,20.40
2019-05-29T09:56:22.341Z,28.20
2019-05-29T09:58:50.909Z,20.73
2019-05-29T10:01:23.874Z,5.83
2019-05-29T10:03:49.722Z,6.30
2019-05-29T10:06:18.334Z,9.10
2019-05-29T10:08:46.928Z,8.70
2019-05-29T10:11:15.399Z,6.67
2019-05-29T10:13:44.150Z,8.73
2019-05-29T10:16:13.195Z,8.17
2019-05-29T10:18:41.652Z,7.30
2019-05-29T10:21:11.444Z,8.43
2019-05-29T10:23:39.934Z,7.50
2019-05-29T10:26:08.469Z,8.77
2019-05-29T10:28:50.402Z,7.10
2019-05-29T10:31:07.309Z,9.40
2019-05-29T10:33:35.924Z,6.80
2019-05-29T10:36:04.650Z,7.90
2019-05-29T10:38:33.292Z,4.43
2019-05-29T10:41:06.838Z,6.00
2019-05-29T10:43:34.577Z,5.60
2019-05-29T10:46:04.032Z,6.73
2019-05-29T10:48:32.672Z,9.43
2019-05-29T10:51:01.418Z,2.77
2019-05-29T10:53:29.885Z,4.93
2019-05-29T10:55:58.440Z,8.97
2019-05-29T10:58:27.049Z,3.63
2019-05-29T11:00:55.679Z,9.93
2019-05-29T11:03:24.220Z,8.67
2019-05-29T11:05:53.766Z,8.73
2019-05-29T11:08:28.256Z,5.93
2019-05-29T11:10:57.009Z,9.27
2019-05-29T11:13:25.536Z,7.23
2019-05-29T11:15:54.820Z,5.43
2019-05-29T11:18:23.792Z,6.43
2019-05-29T11:20:53.367Z,11.83
2019-05-29T11:23:22.433Z,6.00
2019-05-29T11:25:51.955Z,8.23
2019-05-29T11:28:20.976Z,11.47
2019-05-29T11:30:51.625Z,6.93
2019-05-29T11:33:19.844Z,7.13
2019-05-29T11:35:58.247Z,8.97
2019-05-29T11:38:18.628Z,8.03
2019-05-29T11:40:47.287Z,10.50
2019-05-29T11:43:15.871Z,6.23
2019-05-29T11:45:44.358Z,6.77
2019-05-29T11:48:13.003Z,6.77
2019-05-29T11:50:41.495Z,8.63
2019-05-29T11:53:09.951Z,7.33
2019-05-29T11:55:38.451Z,11.00
2019-05-29T11:58:06.979Z,5.30
2019-05-29T12:00:35.445Z,7.37
2019-05-29T12:03:06.418Z,8.83
2019-05-29T12:05:35.023Z,5.70
2019-05-29T12:08:04.207Z,6.13
2019-05-29T12:10:34.585Z,8.17
2019-05-29T12:13:03.142Z,4.27
2019-05-29T12:15:31.680Z,7.30
2019-05-29T12:18:20.824Z,8.77
2019-05-29T12:20:32.047Z,7.27
2019-05-29T12:23:23.973Z,10.07
2019-05-29T12:25:33.871Z,5.60
2019-05-29T12:28:03.473Z,5.40
2019-05-29T12:30:32.917Z,5.47
2019-05-29T12:33:01.491Z,4.27
2019-05-29T12:35:29.957Z,9.27
2019-05-29T12:37:59.437Z,9.40
2019-05-29T12:40:28.196Z,4.83
2019-05-29T12:42:57.509Z,5.73
2019-05-29T12:45:26.315Z,9.07
2019-05-29T12:47:56.523Z,4.57
2019-05-29T12:50:27.037Z,5.37
2019-05-29T12:52:55.778Z,7.97
2019-05-29T12:55:24.713Z,9.87
2019-05-29T12:57:53.856Z,9.53
2019-05-29T13:00:22.648Z,6.50
2019-05-29T13:02:51.253Z,4.33
2019-05-29T13:05:21.059Z,8.83
2019-05-29T13:07:49.742Z,4.23
2019-05-29T13:10:30.134Z,9.20
2019-05-29T13:12:49.770Z,6.73
2019-05-29T13:15:20.595Z,10.93
2019-05-29T13:17:49.181Z,11.20
2019-05-29T13:20:22.193Z,8.70
2019-05-29T13:22:48.554Z,7.20
2019-05-29T13:25:17.285Z,4.57
2019-05-29T13:27:45.814Z,6.37
2019-05-29T13:30:16.601Z,11.07
2019-05-29T13:32:45.290Z,6.57
2019-05-29T13:35:14.738Z,9.10
2019-05-29T13:37:44.300Z,8.07
2019-05-29T13:40:13.045Z,6.57
2019-05-29T13:42:41.571Z,7.07
2019-05-29T13:45:17.920Z,11.93
2019-05-29T13:47:42.602Z,6.50
2019-05-29T13:50:12.932Z,6.17
2019-05-29T13:52:41.632Z,9.37
2019-05-29T13:55:11.277Z,9.33
2019-05-29T13:57:40.282Z,4.30
2019-05-29T14:02:44.328Z,7.63
2019-05-29T14:05:15.055Z,8.07
2019-05-29T14:07:43.597Z,9.27
2019-05-29T14:10:13.212Z,7.77
2019-05-29T14:12:41.683Z,4.80
2019-05-29T14:15:12.404Z,6.00
2019-05-29T14:17:42.146Z,5.47
2019-05-29T14:20:11.629Z,8.47
2019-05-29T14:22:40.093Z,9.10
2019-05-29T14:25:11.531Z,7.40
2019-05-29T14:27:40.427Z,4.87
2019-05-29T14:30:11.175Z,4.53
2019-05-29T14:32:39.798Z,3.87
2019-05-29T14:35:11.115Z,3.97
2019-05-29T14:37:40.200Z,9.83
2019-05-29T14:40:09.876Z,10.13
2019-05-29T14:42:39.720Z,6.07
2019-05-29T14:45:10.170Z,8.67
2019-05-29T14:47:38.949Z,9.80
2019-05-29T14:50:08.914Z,8.03
2019-05-29T14:52:37.580Z,4.17
2019-05-29T14:55:06.909Z,5.70
2019-05-29T14:57:35.491Z,7.90
2019-05-29T15:00:20.924Z,5.83
2019-05-29T15:02:39.690Z,7.87
2019-05-29T15:05:09.880Z,6.90
2019-05-29T15:07:38.716Z,8.20
2019-05-29T15:10:22.653Z,10.30
2019-05-29T15:12:39.939Z,6.43
2019-05-29T15:15:11.103Z,6.07
2019-05-29T15:17:39.630Z,6.07
2019-05-29T15:20:09.627Z,6.07
2019-05-29T15:22:38.635Z,7.63
2019-05-29T15:25:18.392Z,7.00
2019-05-29T15:27:38.925Z,3.80
2019-05-29T15:30:08.947Z,5.47
2019-05-29T15:32:38.698Z,7.50
2019-05-29T15:35:13.754Z,6.03
2019-05-29T15:37:38.569Z,7.90
2019-05-29T15:40:08.887Z,4.63
2019-05-29T15:42:37.497Z,4.50
2019-05-29T15:45:07.884Z,11.07
2019-05-29T15:47:36.541Z,11.00
2019-05-29T15:50:09.289Z,8.03
2019-05-29T15:52:38.351Z,7.73
2019-05-29T15:55:27.472Z,7.40
2019-05-29T15:57:41.224Z,6.47
2019-05-29T16:00:11.590Z,4.43
2019-05-29T16:02:40.197Z,7.17
2019-05-29T16:05:10.870Z,8.27
2019-05-29T16:07:39.964Z,7.70
2019-05-29T16:10:13.035Z,3.47
2019-05-29T16:12:39.887Z,9.70
2019-05-29T16:15:11.080Z,4.70
2019-05-29T16:17:40.187Z,6.57
2019-05-29T16:20:10.441Z,5.03
2019-05-29T16:22:39.505Z,7.47
2019-05-29T16:25:10.675Z,7.10
2019-05-29T16:27:39.710Z,10.67
2019-05-29T16:30:11.223Z,3.33
2019-05-29T16:32:40.362Z,9.97
2019-05-29T16:35:12.925Z,3.73
2019-05-29T16:37:41.781Z,12.03
2019-05-29T16:40:13.703Z,6.13
2019-05-29T16:42:42.679Z,9.30
2019-05-29T16:45:14.210Z,4.00
2019-05-29T16:47:43.154Z,10.97
2019-05-29T16:50:13.181Z,5.03
2019-05-29T16:52:42.922Z,11.17
2019-05-29T16:55:12.856Z,9.87
2019-05-29T16:57:41.526Z,5.77
2019-05-29T17:00:13.553Z,11.83
2019-05-29T17:02:42.616Z,7.10
2019-05-29T17:05:11.594Z,6.70
2019-05-29T17:07:40.113Z,6.27
2019-05-29T17:10:11.347Z,7.13
2019-05-29T17:12:40.161Z,8.27
2019-05-29T17:15:14.814Z,11.50
2019-05-29T17:17:43.387Z,4.00
2019-05-29T17:20:14.945Z,5.33
2019-05-29T17:22:43.421Z,4.03
2019-05-29T17:25:12.741Z,4.80
2019-05-29T17:27:41.266Z,7.40
2019-05-29T17:30:10.587Z,8.10
2019-05-29T17:32:39.159Z,8.70
2019-05-29T17:35:09.083Z,7.87
2019-05-29T17:37:38.112Z,7.60
2019-05-29T17:40:10.998Z,3.60
2019-05-29T17:42:39.544Z,4.40
2019-05-29T17:45:12.389Z,9.03
2019-05-29T17:47:41.569Z,5.73
2019-05-29T17:50:11.026Z,8.43
2019-05-29T17:52:39.592Z,12.90
2019-05-29T17:55:08.819Z,6.07
2019-05-29T17:57:37.280Z,9.20
2019-05-29T18:00:13.094Z,6.43
2019-05-29T18:02:51.453Z,7.50
2019-05-29T18:05:14.573Z,11.07
2019-05-29T18:07:43.157Z,7.60
2019-05-29T18:10:13.612Z,11.53
2019-05-29T18:12:42.130Z,4.40
2019-05-29T18:15:11.898Z,7.70
2019-05-29T18:17:43.589Z,7.30
2019-05-29T18:20:14.590Z,6.27
2019-05-29T18:22:43.499Z,6.10
2019-05-29T18:25:12.202Z,4.70
2019-05-29T18:27:40.663Z,6.17
2019-05-29T18:30:10.606Z,8.83
2019-05-29T18:32:39.226Z,5.03
2019-05-29T18:35:08.691Z,7.93
2019-05-29T18:37:37.349Z,3.97
2019-05-29T18:40:12.444Z,6.47
2019-05-29T18:42:39.528Z,7.97
2019-05-29T18:45:20.218Z,9.67
2019-05-29T18:47:39.541Z,6.17
2019-05-29T18:50:09.446Z,4.90
2019-05-29T18:52:38.602Z,7.27
2019-05-29T18:55:09.436Z,10.97
2019-05-29T18:57:37.913Z,11.33
2019-05-29T19:00:11.194Z,9.13
2019-05-29T19:02:39.668Z,6.63
2019-05-29T19:05:09.290Z,6.27
2019-05-29T19:07:37.915Z,12.43
2019-05-29T19:10:08.219Z,2.70
2019-05-29T19:12:36.907Z,3.73
2019-05-29T19:15:07.029Z,7.10
2019-05-29T19:17:35.503Z,5.30
2019-05-29T19:20:06.571Z,6.87
2019-05-29T19:22:35.143Z,6.90
2019-05-29T19:25:06.212Z,3.17
2019-05-29T19:27:41.689Z,5.43
2019-05-29T19:30:09.385Z,7.40
2019-05-29T19:32:37.979Z,7.70
2019-05-29T19:35:07.882Z,6.63
2019-05-29T19:37:36.598Z,5.33
2019-05-29T19:40:08.589Z,7.67
2019-05-29T19:42:37.645Z,4.90
2019-05-29T19:45:11.266Z,6.47
2019-05-29T19:47:39.743Z,8.80
2019-05-29T19:50:13.131Z,4.13
2019-05-29T19:52:43.595Z,7.20
2019-05-29T19:55:12.117Z,7.97
2019-05-29T19:57:54.899Z,3.97
2019-05-29T20:00:13.260Z,2.00
2019-05-29T20:02:41.724Z,4.53
2019-05-29T20:05:11.783Z,6.53
2019-05-29T20:07:40.277Z,4.93
2019-05-29T20:10:09.974Z,5.43
2019-05-29T20:12:38.490Z,7.20
2019-05-29T20:15:07.503Z,3.80
2019-05-29T20:17:36.271Z,4.87
2019-05-29T20:20:08.871Z,6.20
2019-05-29T20:22:38.911Z,7.03
2019-05-29T20:25:08.819Z,5.17
2019-05-29T20:27:38.373Z,7.23
2019-05-29T20:30:10.789Z,7.23
2019-05-29T20:32:39.371Z,5.60
2019-05-29T20:35:09.119Z,5.77
2019-05-29T20:37:38.356Z,4.13
2019-05-29T20:40:08.131Z,8.37
2019-05-29T20:42:36.608Z,12.67
2019-05-29T20:45:09.302Z,5.30
2019-05-29T20:47:37.993Z,10.50
2019-05-29T20:50:08.654Z,7.67
2019-05-29T20:52:37.425Z,8.63
2019-05-29T20:55:07.303Z,2.83
2019-05-29T20:57:36.003Z,8.57
2019-05-29T21:00:09.943Z,8.70
2019-05-29T21:02:38.493Z,7.40
2019-05-29T21:05:09.350Z,7.37
2019-05-29T21:07:38.829Z,6.70
2019-05-29T21:10:07.616Z,9.27
2019-05-29T21:12:37.371Z,7.60
2019-05-29T21:15:07.192Z,11.40
2019-05-29T21:17:35.791Z,8.27
2019-05-29T21:20:06.473Z,12.13
2019-05-29T21:22:36.409Z,6.83
2019-05-29T21:25:11.258Z,5.53
2019-05-29T21:27:37.555Z,11.47
2019-05-29T21:30:11.358Z,4.80
2019-05-29T21:32:40.267Z,4.10
2019-05-29T21:35:10.306Z,5.03
2019-05-29T21:37:40.227Z,5.93
2019-05-29T21:40:09.092Z,9.43
2019-05-29T21:42:38.524Z,4.77
2019-05-29T21:45:08.438Z,6.50
2019-05-29T21:47:37.165Z,7.30
2019-05-29T21:50:07.235Z,11.30
2019-05-29T21:52:35.759Z,5.73
2019-05-29T21:55:06.427Z,3.67
2019-05-29T21:57:35.121Z,4.40
2019-05-29T22:00:05.858Z,5.33
2019-05-29T22:02:34.332Z,3.33
2019-05-29T22:05:03.162Z,8.70
2019-05-29T22:07:31.700Z,3.40
2019-05-29T22:10:00.926Z,8.80
2019-05-29T22:12:29.495Z,4.33
2019-05-29T22:14:58.958Z,5.77
2019-05-29T22:17:27.481Z,7.30
2019-05-29T22:19:56.969Z,6.80
2019-05-29T22:22:25.600Z,8.37
2019-05-29T22:24:55.259Z,9.77
2019-05-29T22:27:23.764Z,4.60
2019-05-29T22:29:53.484Z,4.63
2019-05-29T22:32:22.311Z,12.57
2019-05-29T22:34:52.144Z,5.40
2019-05-29T22:37:20.987Z,8.93
2019-05-29T22:39:49.653Z,5.70
2019-05-29T22:42:18.321Z,5.23
2019-05-29T22:44:46.894Z,7.03
2019-05-29T22:47:15.351Z,5.60
2019-05-29T22:49:43.814Z,5.70
2019-05-29T22:52:12.302Z,6.13
2019-05-29T22:54:40.753Z,7.23
2019-05-29T22:57:09.211Z,11.53
2019-05-29T22:59:37.800Z,8.43
2019-05-29T23:02:06.286Z,7.23
2019-05-29T23:04:34.766Z,4.63
2019-05-29T23:07:03.267Z,12.27
2019-05-29T23:09:32.338Z,4.80
2019-05-29T23:12:00.799Z,6.83
2019-05-29T23:14:30.168Z,4.40
2019-05-29T23:16:58.643Z,6.20
2019-05-29T23:19:27.146Z,7.43
2019-05-29T23:21:56.533Z,5.90
2019-05-29T23:24:25.228Z,6.57
2019-05-29T23:26:54.955Z,9.60
2019-05-29T23:29:23.754Z,7.90
2019-05-29T23:31:52.829Z,3.83
2019-05-29T23:34:21.670Z,11.47
2019-05-29T23:36:50.813Z,9.17
2019-05-29T23:39:19.334Z,7.90
2019-05-29T23:41:47.858Z,7.50
2019-05-29T23:44:17.890Z,8.20
2019-05-29T23:46:46.368Z,9.23
2019-05-29T23:49:14.989Z,13.47
2019-05-29T23:51:43.497Z,17.10
2019-05-29T23:54:12.014Z,18.43
2019-05-29T23:56:40.497Z,17.73
2019-05-29T23:59:09.084Z,17.37
